createdAt,value
2019-03-04T00:01:05.420Z,84.92
2019-03-04T00:03:31.653Z,83.02
2019-03-04T00:05:58.087Z,82.13
2019-03-04T00:08:24.316Z,82.32
2019-03-04T00:10:50.571Z,82.48
2019-03-04T00:13:16.788Z,82.69
2019-03-04T00:15:43.039Z,82.24
2019-03-04T00:18:09.279Z,82.66
2019-03-04T00:20:35.527Z,82.60
2019-03-04T00:23:01.766Z,84.47
2019-03-04T00:25:27.995Z,84.44
2019-03-04T00:27:54.225Z,83.40
2019-03-04T00:30:20.468Z,83.28
2019-03-04T00:32:46.697Z,83.29
2019-03-04T00:35:13.050Z,82.64
2019-03-04T00:37:39.264Z,83.28
2019-03-04T00:40:46.810Z,82.56
2019-03-04T00:43:13.046Z,82.66
2019-03-04T00:45:39.300Z,82.74
2019-03-04T00:48:05.527Z,81.96
2019-03-04T00:50:31.789Z,82.23
2019-03-04T00:52:58.010Z,82.41
2019-03-04T00:55:24.248Z,83.47
2019-03-04T00:57:50.478Z,83.09
2019-03-04T01:00:36.462Z,84.42
2019-03-04T01:05:39.896Z,82.85
2019-03-04T01:08:06.113Z,82.84
2019-03-04T01:10:32.354Z,83.11
2019-03-04T01:12:58.583Z,83.69
2019-03-04T01:15:24.823Z,83.79
2019-03-04T01:18:32.362Z,84.16
2019-03-04T01:20:58.611Z,84.15
2019-03-04T01:23:24.841Z,84.65
2019-03-04T01:25:51.078Z,84.30
2019-03-04T01:28:17.310Z,84.11
2019-03-04T01:30:43.567Z,83.09
2019-03-04T01:33:09.811Z,83.20
2019-03-04T01:35:36.038Z,84.45
2019-03-04T01:38:02.284Z,83.91
2019-03-04T01:40:28.511Z,84.88
2019-03-04T01:42:54.755Z,84.28
2019-03-04T01:45:20.981Z,83.48
2019-03-04T01:47:47.215Z,83.15
2019-03-04T01:53:13.943Z,82.97
2019-03-04T01:55:40.171Z,84.01
2019-03-04T01:58:06.416Z,84.51
2019-03-04T02:00:32.648Z,84.83
2019-03-04T02:02:58.893Z,83.95
2019-03-04T02:05:25.223Z,83.64
2019-03-04T02:07:51.462Z,84.02
2019-03-04T02:10:59.016Z,84.11
2019-03-04T02:13:25.238Z,84.35
2019-03-04T02:15:51.468Z,84.03
2019-03-04T02:18:17.715Z,84.21
2019-03-04T02:20:43.952Z,84.22
2019-03-04T02:23:29.936Z,85.06
2019-03-04T02:29:10.057Z,84.07
2019-03-04T02:31:36.286Z,84.96
2019-03-04T02:34:02.529Z,83.55
2019-03-04T02:36:28.761Z,84.47
2019-03-04T02:38:55.000Z,84.05
2019-03-04T02:41:21.259Z,83.90
2019-03-04T02:43:47.501Z,83.60
2019-03-04T02:46:13.731Z,83.14
2019-03-04T02:48:39.979Z,82.67
2019-03-04T02:51:06.216Z,84.13
2019-03-04T02:53:32.477Z,84.36
2019-03-04T02:55:58.704Z,84.49
2019-03-04T02:58:24.947Z,84.42
2019-03-04T03:00:51.187Z,84.69
2019-03-04T03:03:17.420Z,84.83
2019-03-04T03:05:43.650Z,83.81
2019-03-04T03:08:09.898Z,82.55
2019-03-04T03:10:36.128Z,83.55
2019-03-04T03:13:02.378Z,84.06
2019-03-04T03:15:28.614Z,84.20
2019-03-04T03:17:54.852Z,83.23
2019-03-04T03:20:21.087Z,82.82
2019-03-04T03:22:47.322Z,82.57
2019-03-04T03:25:54.896Z,82.58
2019-03-04T03:28:21.131Z,82.55
2019-03-04T03:30:47.367Z,83.61
2019-03-04T03:33:13.628Z,82.61
2019-03-04T03:35:39.853Z,82.59
2019-03-04T03:38:06.103Z,82.86
2019-03-04T03:40:32.344Z,83.00
2019-03-04T03:42:58.681Z,82.49
2019-03-04T03:45:24.929Z,82.60
2019-03-04T03:47:51.153Z,84.09
2019-03-04T03:50:17.444Z,84.69
2019-03-04T03:55:57.920Z,83.82
2019-03-04T03:58:25.469Z,83.38
2019-03-04T04:00:52.300Z,84.12
2019-03-04T04:03:18.532Z,83.22
2019-03-04T04:05:44.781Z,82.38
2019-03-04T04:08:11.047Z,82.24
2019-03-04T04:10:37.289Z,82.08
2019-03-04T04:13:03.530Z,81.96
2019-03-04T04:15:29.767Z,82.00
2019-03-04T04:17:56.004Z,82.67
2019-03-04T04:20:22.272Z,84.29
2019-03-04T04:22:48.501Z,84.00
2019-03-04T04:27:48.401Z,83.68
2019-03-04T04:30:55.945Z,84.09
2019-03-04T04:33:22.168Z,83.71
2019-03-04T04:35:48.414Z,84.28
2019-03-04T04:38:14.649Z,83.22
2019-03-04T04:40:40.893Z,82.81
2019-03-04T04:43:07.127Z,82.83
2019-03-04T04:45:33.366Z,83.10
2019-03-04T04:47:59.598Z,82.88
2019-03-04T04:51:07.151Z,82.96
2019-03-04T04:53:33.380Z,83.20
2019-03-04T04:55:59.626Z,84.25
2019-03-04T04:58:25.867Z,84.26
2019-03-04T05:01:41.050Z,84.49
2019-03-04T05:04:07.301Z,85.29
2019-03-04T05:06:33.544Z,85.63
2019-03-04T05:08:59.771Z,84.83
2019-03-04T05:11:26.019Z,84.60
2019-03-04T05:13:52.256Z,84.19
2019-03-04T05:16:18.503Z,85.48
2019-03-04T05:18:44.739Z,84.89
2019-03-04T05:21:10.988Z,84.87
2019-03-04T05:23:37.215Z,83.82
2019-03-04T05:26:03.459Z,82.87
2019-03-04T05:28:29.690Z,82.65
2019-03-04T05:30:55.942Z,83.27
2019-03-04T05:33:22.177Z,84.41
2019-03-04T05:35:48.412Z,83.83
2019-03-04T05:38:14.651Z,83.60
2019-03-04T05:40:40.882Z,83.33
2019-03-04T05:43:07.152Z,84.33
2019-03-04T05:45:33.381Z,83.33
2019-03-04T05:47:59.637Z,83.75
2019-03-04T05:50:25.871Z,84.43
2019-03-04T05:52:52.111Z,84.45
2019-03-04T05:55:18.342Z,84.42
2019-03-04T05:57:44.589Z,83.26
2019-03-04T06:03:24.454Z,84.29
2019-03-04T06:05:50.683Z,84.51
2019-03-04T06:08:16.938Z,84.91
2019-03-04T06:10:43.171Z,84.07
2019-03-04T06:13:09.413Z,84.35
2019-03-04T06:15:35.648Z,84.34
2019-03-04T06:18:01.896Z,84.32
2019-03-04T06:20:28.133Z,84.15
2019-03-04T06:22:54.373Z,84.34
2019-03-04T06:25:40.353Z,83.86
2019-03-04T06:28:06.597Z,84.42
2019-03-04T06:30:32.819Z,84.38
2019-03-04T06:32:59.059Z,84.71
2019-03-04T06:35:25.288Z,84.36
2019-03-04T06:37:51.549Z,83.94
2019-03-04T06:43:31.258Z,84.05
2019-03-04T06:45:57.490Z,83.17
2019-03-04T06:48:23.760Z,84.17
2019-03-04T06:57:12.189Z,82.03
2019-03-04T07:00:19.739Z,82.06
2019-03-04T07:02:45.966Z,82.38
2019-03-04T07:05:51.717Z,82.07
2019-03-04T07:11:18.499Z,82.05
2019-03-04T07:13:44.736Z,82.45
2019-03-04T07:16:10.983Z,82.21
2019-03-04T07:18:37.217Z,81.74
2019-03-04T07:21:03.479Z,81.68
2019-03-04T07:23:29.700Z,81.92
2019-03-04T07:25:55.950Z,82.30
2019-03-04T07:28:22.204Z,82.46
2019-03-04T07:30:48.460Z,82.72
2019-03-04T07:36:02.395Z,82.93
2019-03-04T07:39:08.127Z,83.03
2019-03-04T07:41:34.379Z,82.97
2019-03-04T07:44:00.633Z,82.76
2019-03-04T07:46:26.879Z,82.78
2019-03-04T07:48:53.120Z,82.73
2019-03-04T07:51:19.490Z,82.57
2019-03-04T07:53:46.629Z,82.74
2019-03-04T07:56:13.870Z,82.21
2019-03-04T07:58:59.852Z,82.20
2019-03-04T08:01:26.100Z,82.90
2019-03-04T08:03:52.331Z,82.27
2019-03-04T08:06:18.587Z,82.21
2019-03-04T08:09:24.320Z,81.59
2019-03-04T08:12:30.061Z,81.25
2019-03-04T08:14:56.300Z,80.85
2019-03-04T08:17:22.565Z,80.32
2019-03-04T08:19:48.809Z,79.96
2019-03-04T08:22:15.068Z,79.66
2019-03-04T08:24:41.307Z,79.38
2019-03-04T08:27:07.540Z,79.33
2019-03-04T08:29:33.791Z,79.22
2019-03-04T08:32:00.031Z,79.03
2019-03-04T08:34:31.120Z,79.13
2019-03-04T08:36:54.427Z,78.93
2019-03-04T08:39:22.907Z,78.44
2019-03-04T08:41:48.814Z,78.32
2019-03-04T08:44:15.075Z,78.13
2019-03-04T08:46:41.304Z,78.10
2019-03-04T08:49:07.537Z,77.90
2019-03-04T08:51:33.776Z,77.66
2019-03-04T08:54:00.025Z,77.20
2019-03-04T08:56:26.254Z,76.81
2019-03-04T08:58:52.496Z,76.58
2019-03-04T09:01:18.723Z,76.18
2019-03-04T09:03:44.967Z,76.14
2019-03-04T09:06:11.190Z,76.07
2019-03-04T09:08:37.439Z,75.37
2019-03-04T09:11:03.775Z,75.99
2019-03-04T09:13:30.024Z,75.48
2019-03-04T09:15:56.349Z,75.92
2019-03-04T09:18:22.616Z,75.54
2019-03-04T09:20:48.839Z,75.02
2019-03-04T09:23:15.076Z,74.97
2019-03-04T09:28:54.744Z,74.52
2019-03-04T09:31:20.994Z,74.59
2019-03-04T09:33:47.252Z,74.69
2019-03-04T09:36:13.494Z,74.63
2019-03-04T09:38:39.716Z,75.16
2019-03-04T09:41:05.959Z,74.84
2019-03-04T09:43:32.191Z,74.87
2019-03-04T09:45:58.429Z,74.41
2019-03-04T09:48:24.643Z,74.75
2019-03-04T09:50:50.879Z,74.41
2019-03-04T09:53:17.115Z,74.27
2019-03-04T09:55:43.350Z,74.63
2019-03-04T09:58:09.569Z,73.47
2019-03-04T10:00:57.378Z,74.31
2019-03-04T10:07:16.430Z,74.11
2019-03-04T10:10:23.983Z,74.87
2019-03-04T10:16:43.065Z,74.13
2019-03-04T10:19:48.814Z,73.03
2019-03-04T10:22:56.396Z,72.64
2019-03-04T10:29:08.830Z,71.99
2019-03-04T10:38:05.974Z,72.63
2019-03-04T10:41:11.705Z,71.24
2019-03-04T10:44:19.282Z,71.73
2019-03-04T10:47:05.265Z,71.31
2019-03-04T10:52:25.428Z,71.05
2019-03-04T10:54:51.686Z,70.07
2019-03-04T10:57:17.918Z,71.02
2019-03-04T10:59:44.167Z,70.90
2019-03-04T11:02:10.395Z,70.85
2019-03-04T11:04:36.671Z,70.79
2019-03-04T11:07:02.970Z,69.56
2019-03-04T11:09:29.259Z,69.23
2019-03-04T11:11:55.483Z,69.55
2019-03-04T11:14:21.721Z,68.67
2019-03-04T11:16:47.939Z,70.17
2019-03-04T11:19:14.175Z,69.67
2019-03-04T11:21:40.408Z,69.33
2019-03-04T11:26:54.263Z,70.12
2019-03-04T11:29:20.479Z,70.43
2019-03-04T11:31:46.714Z,69.62
2019-03-04T11:34:12.951Z,70.48
2019-03-04T11:36:39.190Z,69.06
2019-03-04T11:39:46.755Z,70.18
2019-03-04T11:42:13.028Z,70.22
2019-03-04T11:44:39.277Z,68.37
2019-03-04T11:47:05.532Z,67.25
2019-03-04T11:49:31.765Z,69.18
2019-03-04T11:51:58.009Z,69.53
2019-03-04T11:54:24.256Z,70.28
2019-03-04T11:56:50.512Z,68.93
2019-03-04T11:59:16.768Z,70.18
2019-03-04T12:04:20.394Z,70.25
2019-03-04T12:06:46.648Z,70.58
2019-03-04T12:11:46.631Z,70.19
2019-03-04T12:14:12.853Z,70.05
2019-03-04T12:16:39.095Z,70.17
2019-03-04T12:19:05.450Z,70.73
2019-03-04T12:21:31.699Z,70.18
2019-03-04T12:27:05.303Z,69.29
2019-03-04T12:29:31.554Z,70.39
2019-03-04T12:34:31.581Z,69.84
2019-03-04T12:36:57.820Z,69.79
2019-03-04T12:39:24.038Z,69.79
2019-03-04T12:41:50.288Z,70.27
2019-03-04T12:44:16.513Z,69.96
2019-03-04T12:46:42.733Z,70.01
2019-03-04T12:49:08.972Z,70.45
2019-03-04T12:51:35.203Z,69.76
2019-03-04T12:54:01.453Z,68.69
2019-03-04T12:56:27.673Z,69.22
2019-03-04T12:58:53.902Z,68.46
2019-03-04T13:01:20.122Z,68.47
2019-03-04T13:03:46.370Z,69.04
2019-03-04T13:06:12.602Z,69.46
2019-03-04T13:08:38.836Z,68.48
2019-03-04T13:11:05.072Z,69.96
2019-03-04T13:13:31.316Z,69.51
2019-03-04T13:16:19.158Z,70.27
2019-03-04T13:18:45.491Z,70.00
2019-03-04T13:21:11.724Z,69.66
2019-03-04T13:23:38.011Z,68.69
2019-03-04T13:26:04.251Z,69.89
2019-03-04T13:28:30.503Z,70.60
2019-03-04T13:30:56.728Z,69.95
2019-03-04T13:33:22.968Z,70.72
2019-03-04T13:35:49.244Z,71.33
2019-03-04T13:38:15.472Z,70.62
2019-03-04T13:41:03.272Z,70.50
2019-03-04T13:43:29.512Z,70.55
2019-03-04T13:45:56.042Z,70.09
2019-03-04T13:48:22.293Z,70.89
2019-03-04T13:50:48.593Z,70.21
2019-03-04T13:53:14.938Z,70.52
2019-03-04T13:55:41.163Z,70.77
2019-03-04T13:58:07.392Z,71.21
2019-03-04T14:01:14.934Z,71.98
2019-03-04T14:03:41.226Z,71.67
2019-03-04T14:06:07.466Z,71.28
2019-03-04T14:08:33.697Z,72.27
2019-03-04T14:10:59.951Z,71.62
2019-03-04T14:13:26.187Z,71.83
2019-03-04T14:16:33.730Z,71.68
2019-03-04T14:19:00.163Z,71.95
2019-03-04T14:21:26.400Z,71.35
2019-03-04T14:23:52.629Z,71.23
2019-03-04T14:26:18.883Z,71.19
2019-03-04T14:28:45.099Z,70.70
2019-03-04T14:31:11.351Z,70.84
2019-03-04T14:33:37.568Z,71.46
2019-03-04T14:36:03.814Z,71.54
2019-03-04T14:38:30.035Z,71.94
2019-03-04T14:40:56.267Z,71.89
2019-03-04T14:43:22.497Z,72.40
2019-03-04T14:45:48.730Z,73.08
2019-03-04T14:48:14.953Z,73.05
2019-03-04T14:50:41.185Z,72.76
2019-03-04T14:53:07.410Z,73.44
2019-03-04T14:56:22.138Z,73.22
2019-03-04T15:01:23.366Z,73.32
2019-03-04T15:03:49.616Z,73.42
2019-03-04T15:06:15.892Z,73.56
2019-03-04T15:08:42.128Z,73.76
2019-03-04T15:11:08.368Z,73.69
2019-03-04T15:13:34.598Z,73.71
2019-03-04T15:16:04.258Z,74.00
2019-03-04T15:18:29.009Z,74.13
2019-03-04T15:20:55.252Z,74.52
2019-03-04T15:23:21.480Z,74.27
2019-03-04T15:25:47.834Z,74.04
2019-03-04T15:28:33.821Z,74.41
2019-03-04T15:31:01.177Z,73.58
2019-03-04T15:33:27.428Z,73.71
2019-03-04T15:35:53.659Z,74.68
2019-03-04T15:38:19.906Z,75.13
2019-03-04T15:40:46.141Z,74.97
2019-03-04T15:43:12.376Z,74.79
2019-03-04T15:51:27.180Z,74.79
2019-03-04T15:53:53.415Z,74.91
2019-03-04T15:56:19.648Z,75.60
2019-03-04T15:58:45.894Z,75.54
2019-03-04T16:04:13.247Z,74.95
2019-03-04T16:06:39.467Z,75.94
2019-03-04T16:09:47.013Z,76.08
2019-03-04T16:14:47.227Z,76.31
2019-03-04T16:17:13.468Z,76.80
2019-03-04T16:19:39.700Z,77.45
2019-03-04T16:22:05.940Z,77.91
2019-03-04T16:24:32.168Z,78.21
2019-03-04T16:27:39.713Z,78.25
2019-03-04T16:30:25.808Z,78.41
2019-03-04T16:32:52.063Z,78.36
2019-03-04T16:38:25.667Z,78.20
2019-03-04T16:40:51.921Z,78.17
2019-03-04T16:43:18.182Z,78.43
2019-03-04T16:45:44.658Z,80.43
2019-03-04T16:48:10.875Z,80.05
2019-03-04T16:50:56.881Z,80.20
2019-03-04T16:54:04.433Z,79.93
2019-03-04T16:56:30.667Z,80.27
2019-03-04T16:58:56.924Z,80.34
2019-03-04T17:01:23.151Z,80.42
2019-03-04T17:03:49.399Z,80.57
2019-03-04T17:06:15.632Z,81.16
2019-03-04T17:08:41.885Z,81.02
2019-03-04T17:11:08.119Z,81.81
2019-03-04T17:13:34.376Z,82.12
2019-03-04T17:19:14.027Z,82.44
2019-03-04T17:21:40.280Z,81.83
2019-03-04T17:24:47.833Z,81.71
2019-03-04T17:27:14.065Z,82.98
2019-03-04T17:29:40.312Z,82.80
2019-03-04T17:35:33.651Z,83.29
2019-03-04T17:37:59.892Z,84.13
2019-03-04T17:41:07.445Z,83.76
2019-03-04T17:43:33.697Z,84.10
2019-03-04T17:45:59.956Z,83.24
2019-03-04T17:48:26.184Z,84.33
2019-03-04T17:50:52.431Z,81.37
2019-03-04T17:53:18.663Z,79.92
2019-03-04T17:58:38.804Z,80.67
2019-03-04T18:01:05.052Z,82.12
2019-03-04T18:03:31.286Z,81.71
2019-03-04T18:05:57.535Z,80.70
2019-03-04T18:08:23.762Z,81.40
2019-03-04T18:10:50.012Z,81.68
2019-03-04T18:13:16.247Z,81.05
2019-03-04T18:16:23.797Z,81.29
2019-03-04T18:18:50.031Z,82.11
2019-03-04T18:21:16.271Z,81.58
2019-03-04T18:23:42.515Z,81.41
2019-03-04T18:26:50.066Z,81.28
2019-03-04T18:39:09.996Z,82.24
2019-03-04T18:45:16.858Z,81.25
2019-03-04T18:48:24.420Z,82.31
2019-03-04T18:50:50.662Z,81.92
2019-03-04T18:53:16.896Z,81.00
2019-03-04T18:55:43.135Z,81.15
2019-03-04T18:58:09.363Z,81.81
2019-03-04T19:00:35.611Z,81.90
2019-03-04T19:03:01.845Z,82.36
2019-03-04T19:05:28.104Z,83.34
2019-03-04T19:07:54.322Z,84.33
2019-03-04T19:10:20.564Z,83.75
2019-03-04T19:12:46.797Z,83.77
2019-03-04T19:18:06.699Z,81.92
2019-03-04T19:20:32.944Z,81.68
2019-03-04T19:22:59.168Z,83.39
2019-03-04T19:25:25.406Z,82.93
2019-03-04T19:27:51.634Z,82.76
2019-03-04T19:30:17.890Z,82.77
2019-03-04T19:32:44.181Z,83.14
2019-03-04T19:35:51.719Z,83.12
2019-03-04T19:38:17.962Z,82.49
2019-03-04T19:40:44.251Z,83.06
2019-03-04T19:43:10.475Z,83.53
2019-03-04T19:45:37.886Z,83.57
2019-03-04T19:48:04.979Z,83.75
2019-03-04T19:50:31.329Z,83.72
2019-03-04T19:52:57.551Z,83.48
2019-03-04T19:55:23.791Z,83.24
2019-03-04T19:57:50.035Z,82.51
2019-03-04T20:00:36.325Z,82.73
2019-03-04T20:05:56.712Z,82.57
2019-03-04T20:08:22.935Z,83.07
2019-03-04T20:10:49.181Z,83.59
2019-03-04T20:13:15.540Z,82.69
2019-03-04T20:15:41.860Z,82.96
2019-03-04T20:18:08.102Z,83.08
2019-03-04T20:20:34.339Z,83.37
2019-03-04T20:23:00.590Z,83.40
2019-03-04T20:26:08.136Z,83.65
2019-03-04T20:28:34.402Z,83.29
2019-03-04T20:31:00.625Z,83.54
2019-03-04T20:33:26.867Z,83.26
2019-03-04T20:35:53.103Z,83.43
2019-03-04T20:39:00.649Z,83.34
2019-03-04T20:41:26.992Z,82.78
2019-03-04T20:43:53.237Z,82.84
2019-03-04T20:46:19.466Z,83.49
2019-03-04T20:48:45.715Z,83.29
2019-03-04T20:51:11.935Z,83.25
2019-03-04T20:53:38.171Z,83.40
2019-03-04T20:56:04.412Z,83.28
2019-03-04T20:58:30.687Z,83.10
2019-03-04T21:00:56.931Z,82.94
2019-03-04T21:03:23.269Z,83.15
2019-03-04T21:05:49.599Z,82.66
2019-03-04T21:08:15.835Z,83.25
2019-03-04T21:10:42.067Z,83.02
2019-03-04T21:13:35.002Z,83.36
2019-03-04T21:15:56.228Z,83.39
2019-03-04T21:18:22.484Z,83.37
2019-03-04T21:21:30.011Z,83.32
2019-03-04T21:23:56.271Z,83.36
2019-03-04T21:36:17.031Z,83.40
2019-03-04T21:38:43.390Z,83.24
2019-03-04T21:41:49.111Z,82.98
2019-03-04T21:44:56.659Z,83.29
2019-03-04T21:51:16.547Z,82.30
2019-03-04T21:54:03.059Z,82.19
2019-03-04T21:57:10.579Z,81.90
2019-03-04T21:59:36.860Z,82.20
2019-03-04T22:05:23.363Z,84.19
2019-03-04T22:07:49.604Z,82.99
2019-03-04T22:12:53.368Z,84.48
2019-03-04T22:15:19.707Z,86.01
2019-03-04T22:20:59.964Z,85.42
2019-03-04T22:23:26.193Z,86.54
2019-03-04T22:26:01.537Z,87.15
2019-03-04T22:28:20.579Z,87.65
2019-03-04T22:30:46.858Z,88.67
2019-03-04T22:33:13.100Z,88.51
2019-03-04T22:35:39.346Z,88.25
2019-03-04T22:38:05.580Z,87.64
2019-03-04T22:40:31.826Z,88.72
2019-03-04T22:42:58.056Z,90.26
2019-03-04T22:45:24.311Z,91.61
2019-03-04T22:48:31.850Z,92.45
2019-03-04T22:50:58.228Z,92.94
2019-03-04T22:53:24.459Z,92.31
2019-03-04T22:55:50.709Z,91.68
2019-03-04T22:58:27.707Z,90.31
2019-03-04T23:01:17.457Z,89.11
2019-03-04T23:03:43.695Z,88.50
2019-03-04T23:06:49.463Z,87.22
2019-03-04T23:09:56.991Z,86.36
2019-03-04T23:13:04.528Z,85.16
2019-03-04T23:15:30.778Z,84.13
2019-03-04T23:17:57.007Z,83.73
2019-03-04T23:20:23.252Z,83.32
2019-03-04T23:22:49.475Z,82.75
2019-03-04T23:25:15.710Z,82.89
2019-03-04T23:27:41.935Z,82.64
2019-03-04T23:30:49.474Z,82.25
2019-03-04T23:33:15.709Z,82.00
2019-03-04T23:35:41.935Z,81.37
2019-03-04T23:38:08.157Z,81.73
2019-03-04T23:40:34.407Z,81.05
2019-03-04T23:43:00.632Z,80.78
2019-03-04T23:45:26.863Z,80.35
2019-03-04T23:47:53.091Z,80.46
2019-03-04T23:51:00.630Z,80.51
2019-03-04T23:53:26.859Z,80.45
2019-03-04T23:55:53.193Z,80.88
2019-03-04T23:58:19.427Z,81.41
